sensor_id;sensor_type;location;lat;lon;timestamp;P1;durP1;ratioP1;P2;durP2;ratioP2
11086;SDS011;5597;47.588;9.642;2022-10-16T00:00:37;2.07;;;1.60;;
11086;SDS011;5597;47.588;9.642;2022-10-16T00:03:04;1.80;;;1.60;;
11086;SDS011;5597;47.588;9.642;2022-10-16T00:05:31;2.47;;;1.87;;
11086;SDS011;5597;47.588;9.642;2022-10-16T00:07:56;4.37;;;1.90;;
11086;SDS011;5597;47.588;9.642;2022-10-16T00:10:22;1.90;;;1.63;;
11086;SDS011;5597;47.588;9.642;2022-10-16T00:12:48;2.60;;;1.90;;
11086;SDS011;5597;47.588;9.642;2022-10-16T00:15:14;2.43;;;1.60;;
11086;SDS011;5597;47.588;9.642;2022-10-16T00:17:40;2.37;;;1.80;;
11086;SDS011;5597;47.588;9.642;2022-10-16T00:20:05;2.03;;;1.57;;
11086;SDS011;5597;47.588;9.642;2022-10-16T00:22:32;2.03;;;1.67;;
11086;SDS011;5597;47.588;9.642;2022-10-16T00:24:57;2.17;;;1.80;;
11086;SDS011;5597;47.588;9.642;2022-10-16T00:27:23;2.83;;;2.00;;
11086;SDS011;5597;47.588;9.642;2022-10-16T00:29:49;3.33;;;1.67;;
11086;SDS011;5597;47.588;9.642;2022-10-16T00:32:16;4.13;;;1.80;;
11086;SDS011;5597;47.588;9.642;2022-10-16T00:34:43;1.90;;;1.70;;
11086;SDS011;5597;47.588;9.642;2022-10-16T00:37:09;2.10;;;1.90;;
11086;SDS011;5597;47.588;9.642;2022-10-16T00:39:34;4.30;;;1.80;;
11086;SDS011;5597;47.588;9.642;2022-10-16T00:42:00;2.20;;;1.60;;
11086;SDS011;5597;47.588;9.642;2022-10-16T00:47:08;4.80;;;1.83;;
11086;SDS011;5597;47.588;9.642;2022-10-16T00:49:35;3.17;;;1.90;;
11086;SDS011;5597;47.588;9.642;2022-10-16T00:52:01;2.60;;;1.80;;
11086;SDS011;5597;47.588;9.642;2022-10-16T00:54:28;2.90;;;1.80;;
11086;SDS011;5597;47.588;9.642;2022-10-16T00:56:56;2.63;;;1.93;;
11086;SDS011;5597;47.588;9.642;2022-10-16T00:59:26;2.03;;;1.83;;
11086;SDS011;5597;47.588;9.642;2022-10-16T01:01:53;2.73;;;1.60;;
11086;SDS011;5597;47.588;9.642;2022-10-16T01:04:19;2.67;;;1.97;;
11086;SDS011;5597;47.588;9.642;2022-10-16T01:06:48;1.97;;;1.73;;
11086;SDS011;5597;47.588;9.642;2022-10-16T01:09:37;2.33;;;1.70;;
11086;SDS011;5597;47.588;9.642;2022-10-16T01:12:17;3.63;;;1.80;;
11086;SDS011;5597;47.588;9.642;2022-10-16T01:15:00;3.53;;;1.87;;
11086;SDS011;5597;47.588;9.642;2022-10-16T01:22:53;2.13;;;1.90;;
11086;SDS011;5597;47.588;9.642;2022-10-16T01:25:37;1.50;;;1.30;;
11086;SDS011;5597;47.588;9.642;2022-10-16T01:28:28;2.53;;;1.63;;
11086;SDS011;5597;47.588;9.642;2022-10-16T01:30:59;2.37;;;1.40;;
11086;SDS011;5597;47.588;9.642;2022-10-16T01:33:28;1.87;;;1.60;;
11086;SDS011;5597;47.588;9.642;2022-10-16T01:36:02;3.13;;;1.50;;
11086;SDS011;5597;47.588;9.642;2022-10-16T01:38:36;2.80;;;1.47;;
11086;SDS011;5597;47.588;9.642;2022-10-16T01:41:11;3.10;;;1.60;;
11086;SDS011;5597;47.588;9.642;2022-10-16T01:43:48;1.83;;;1.40;;
11086;SDS011;5597;47.588;9.642;2022-10-16T01:46:18;1.40;;;1.30;;
11086;SDS011;5597;47.588;9.642;2022-10-16T01:48:46;1.93;;;1.53;;
11086;SDS011;5597;47.588;9.642;2022-10-16T01:51:13;3.30;;;1.50;;
11086;SDS011;5597;47.588;9.642;2022-10-16T01:53:41;1.70;;;1.50;;
11086;SDS011;5597;47.588;9.642;2022-10-16T01:56:12;2.67;;;1.30;;
11086;SDS011;5597;47.588;9.642;2022-10-16T01:58:42;2.00;;;1.80;;
11086;SDS011;5597;47.588;9.642;2022-10-16T02:01:12;1.40;;;1.30;;
11086;SDS011;5597;47.588;9.642;2022-10-16T02:03:41;1.47;;;1.30;;
11086;SDS011;5597;47.588;9.642;2022-10-16T02:06:09;2.80;;;1.60;;
11086;SDS011;5597;47.588;9.642;2022-10-16T02:08:35;2.00;;;1.40;;
11086;SDS011;5597;47.588;9.642;2022-10-16T02:11:01;1.97;;;1.50;;
11086;SDS011;5597;47.588;9.642;2022-10-16T02:13:29;2.57;;;1.67;;
11086;SDS011;5597;47.588;9.642;2022-10-16T02:15:58;3.87;;;1.80;;
11086;SDS011;5597;47.588;9.642;2022-10-16T02:18:25;2.30;;;1.37;;
11086;SDS011;5597;47.588;9.642;2022-10-16T02:23:51;3.30;;;1.40;;
11086;SDS011;5597;47.588;9.642;2022-10-16T02:26:35;3.30;;;1.40;;
11086;SDS011;5597;47.588;9.642;2022-10-16T02:29:07;2.63;;;1.60;;
11086;SDS011;5597;47.588;9.642;2022-10-16T02:31:38;1.70;;;1.37;;
11086;SDS011;5597;47.588;9.642;2022-10-16T02:34:08;4.33;;;1.67;;
11086;SDS011;5597;47.588;9.642;2022-10-16T02:36:37;4.17;;;1.80;;
11086;SDS011;5597;47.588;9.642;2022-10-16T02:39:04;1.50;;;1.40;;
11086;SDS011;5597;47.588;9.642;2022-10-16T02:41:31;1.77;;;1.30;;
11086;SDS011;5597;47.588;9.642;2022-10-16T02:43:57;1.87;;;1.30;;
11086;SDS011;5597;47.588;9.642;2022-10-16T02:46:23;1.87;;;1.40;;
11086;SDS011;5597;47.588;9.642;2022-10-16T02:48:49;2.83;;;1.30;;
11086;SDS011;5597;47.588;9.642;2022-10-16T02:51:14;1.47;;;1.10;;
11086;SDS011;5597;47.588;9.642;2022-10-16T02:53:40;1.67;;;1.43;;
11086;SDS011;5597;47.588;9.642;2022-10-16T02:56:05;2.43;;;1.37;;
11086;SDS011;5597;47.588;9.642;2022-10-16T02:58:31;1.60;;;1.40;;
11086;SDS011;5597;47.588;9.642;2022-10-16T03:00:57;4.13;;;1.37;;
11086;SDS011;5597;47.588;9.642;2022-10-16T03:03:22;1.30;;;1.20;;
11086;SDS011;5597;47.588;9.642;2022-10-16T03:05:48;1.80;;;1.40;;
11086;SDS011;5597;47.588;9.642;2022-10-16T03:08:13;2.13;;;1.20;;
11086;SDS011;5597;47.588;9.642;2022-10-16T03:10:39;1.43;;;1.33;;
11086;SDS011;5597;47.588;9.642;2022-10-16T03:13:04;2.10;;;1.30;;
11086;SDS011;5597;47.588;9.642;2022-10-16T03:15:30;2.50;;;1.43;;
11086;SDS011;5597;47.588;9.642;2022-10-16T03:17:59;1.70;;;1.40;;
11086;SDS011;5597;47.588;9.642;2022-10-16T03:20:25;1.30;;;1.20;;
11086;SDS011;5597;47.588;9.642;2022-10-16T03:22:51;3.20;;;1.30;;
11086;SDS011;5597;47.588;9.642;2022-10-16T03:25:17;1.13;;;1.00;;
11086;SDS011;5597;47.588;9.642;2022-10-16T03:27:42;1.27;;;1.10;;
11086;SDS011;5597;47.588;9.642;2022-10-16T03:30:08;1.37;;;1.10;;
11086;SDS011;5597;47.588;9.642;2022-10-16T03:32:34;1.60;;;1.20;;
11086;SDS011;5597;47.588;9.642;2022-10-16T03:35:00;1.23;;;1.13;;
11086;SDS011;5597;47.588;9.642;2022-10-16T03:37:25;2.63;;;1.33;;
11086;SDS011;5597;47.588;9.642;2022-10-16T03:39:51;1.20;;;1.10;;
11086;SDS011;5597;47.588;9.642;2022-10-16T03:42:17;1.20;;;1.10;;
11086;SDS011;5597;47.588;9.642;2022-10-16T03:44:43;1.63;;;1.30;;
11086;SDS011;5597;47.588;9.642;2022-10-16T03:47:08;1.40;;;1.30;;
11086;SDS011;5597;47.588;9.642;2022-10-16T03:49:34;1.40;;;1.30;;
11086;SDS011;5597;47.588;9.642;2022-10-16T03:51:59;2.23;;;1.13;;
11086;SDS011;5597;47.588;9.642;2022-10-16T03:54:25;2.70;;;1.20;;
11086;SDS011;5597;47.588;9.642;2022-10-16T03:56:51;1.43;;;1.20;;
11086;SDS011;5597;47.588;9.642;2022-10-16T03:59:16;1.77;;;0.90;;
11086;SDS011;5597;47.588;9.642;2022-10-16T04:01:42;2.80;;;1.40;;
11086;SDS011;5597;47.588;9.642;2022-10-16T04:04:07;1.67;;;1.37;;
11086;SDS011;5597;47.588;9.642;2022-10-16T04:06:33;2.00;;;1.00;;
11086;SDS011;5597;47.588;9.642;2022-10-16T04:08:58;2.43;;;1.23;;
11086;SDS011;5597;47.588;9.642;2022-10-16T04:11:26;1.40;;;1.20;;
11086;SDS011;5597;47.588;9.642;2022-10-16T04:13:52;1.20;;;1.00;;
11086;SDS011;5597;47.588;9.642;2022-10-16T04:16:18;2.50;;;1.13;;
11086;SDS011;5597;47.588;9.642;2022-10-16T04:18:43;1.50;;;1.20;;
11086;SDS011;5597;47.588;9.642;2022-10-16T04:21:09;1.40;;;1.30;;
11086;SDS011;5597;47.588;9.642;2022-10-16T04:23:35;1.20;;;1.10;;
11086;SDS011;5597;47.588;9.642;2022-10-16T04:26:00;1.33;;;1.20;;
11086;SDS011;5597;47.588;9.642;2022-10-16T04:28:26;2.20;;;1.20;;
11086;SDS011;5597;47.588;9.642;2022-10-16T04:30:52;2.27;;;1.20;;
11086;SDS011;5597;47.588;9.642;2022-10-16T04:33:17;1.40;;;1.20;;
11086;SDS011;5597;47.588;9.642;2022-10-16T04:35:43;1.57;;;1.00;;
11086;SDS011;5597;47.588;9.642;2022-10-16T04:38:08;1.20;;;1.10;;
11086;SDS011;5597;47.588;9.642;2022-10-16T04:40:34;1.63;;;1.20;;
11086;SDS011;5597;47.588;9.642;2022-10-16T04:43:02;1.37;;;1.27;;
11086;SDS011;5597;47.588;9.642;2022-10-16T04:45:28;1.33;;;1.20;;
11086;SDS011;5597;47.588;9.642;2022-10-16T04:47:57;1.43;;;1.20;;
11086;SDS011;5597;47.588;9.642;2022-10-16T04:50:23;1.53;;;1.10;;
11086;SDS011;5597;47.588;9.642;2022-10-16T04:52:49;1.67;;;1.30;;
11086;SDS011;5597;47.588;9.642;2022-10-16T04:55:15;1.33;;;1.20;;
11086;SDS011;5597;47.588;9.642;2022-10-16T04:57:40;2.03;;;1.50;;
11086;SDS011;5597;47.588;9.642;2022-10-16T05:00:06;1.40;;;1.30;;
11086;SDS011;5597;47.588;9.642;2022-10-16T05:02:33;1.37;;;1.27;;
11086;SDS011;5597;47.588;9.642;2022-10-16T05:04:58;1.33;;;1.23;;
11086;SDS011;5597;47.588;9.642;2022-10-16T05:07:24;2.40;;;1.30;;
11086;SDS011;5597;47.588;9.642;2022-10-16T05:09:49;2.93;;;1.20;;
11086;SDS011;5597;47.588;9.642;2022-10-16T05:12:15;2.23;;;1.50;;
11086;SDS011;5597;47.588;9.642;2022-10-16T05:14:41;1.43;;;1.23;;
11086;SDS011;5597;47.588;9.642;2022-10-16T05:17:06;3.30;;;1.20;;
11086;SDS011;5597;47.588;9.642;2022-10-16T05:19:32;1.50;;;1.23;;
11086;SDS011;5597;47.588;9.642;2022-10-16T05:21:57;1.40;;;1.20;;
11086;SDS011;5597;47.588;9.642;2022-10-16T05:24:23;1.73;;;1.40;;
11086;SDS011;5597;47.588;9.642;2022-10-16T05:26:49;1.30;;;1.20;;
11086;SDS011;5597;47.588;9.642;2022-10-16T05:29:15;1.17;;;1.07;;
11086;SDS011;5597;47.588;9.642;2022-10-16T05:31:40;1.20;;;1.10;;
11086;SDS011;5597;47.588;9.642;2022-10-16T05:34:06;1.40;;;1.13;;
11086;SDS011;5597;47.588;9.642;2022-10-16T05:36:32;1.40;;;1.00;;
11086;SDS011;5597;47.588;9.642;2022-10-16T05:38:57;1.30;;;1.20;;
11086;SDS011;5597;47.588;9.642;2022-10-16T05:41:23;1.20;;;1.10;;
11086;SDS011;5597;47.588;9.642;2022-10-16T05:43:50;2.97;;;1.37;;
11086;SDS011;5597;47.588;9.642;2022-10-16T05:46:16;2.30;;;1.20;;
11086;SDS011;5597;47.588;9.642;2022-10-16T05:48:42;1.20;;;1.10;;
11086;SDS011;5597;47.588;9.642;2022-10-16T05:51:09;1.40;;;1.30;;
11086;SDS011;5597;47.588;9.642;2022-10-16T05:53:37;1.43;;;1.33;;
11086;SDS011;5597;47.588;9.642;2022-10-16T05:56:03;1.40;;;1.30;;
11086;SDS011;5597;47.588;9.642;2022-10-16T05:58:31;1.43;;;1.33;;
11086;SDS011;5597;47.588;9.642;2022-10-16T06:01:00;1.93;;;1.27;;
11086;SDS011;5597;47.588;9.642;2022-10-16T06:03:45;1.20;;;1.10;;
11086;SDS011;5597;47.588;9.642;2022-10-16T06:06:12;1.57;;;1.20;;
11086;SDS011;5597;47.588;9.642;2022-10-16T06:08:43;1.30;;;1.20;;
11086;SDS011;5597;47.588;9.642;2022-10-16T06:11:11;1.27;;;1.17;;
11086;SDS011;5597;47.588;9.642;2022-10-16T06:13:39;1.67;;;1.57;;
11086;SDS011;5597;47.588;9.642;2022-10-16T06:16:07;1.83;;;1.50;;
11086;SDS011;5597;47.588;9.642;2022-10-16T06:18:33;1.70;;;1.50;;
11086;SDS011;5597;47.588;9.642;2022-10-16T06:20:59;1.33;;;1.23;;
11086;SDS011;5597;47.588;9.642;2022-10-16T06:23:31;1.30;;;1.20;;
11086;SDS011;5597;47.588;9.642;2022-10-16T06:26:03;1.20;;;1.10;;
11086;SDS011;5597;47.588;9.642;2022-10-16T06:28:30;1.43;;;1.20;;
11086;SDS011;5597;47.588;9.642;2022-10-16T06:30:59;2.20;;;1.37;;
11086;SDS011;5597;47.588;9.642;2022-10-16T06:33:25;1.40;;;1.20;;
11086;SDS011;5597;47.588;9.642;2022-10-16T06:35:51;1.10;;;1.00;;
11086;SDS011;5597;47.588;9.642;2022-10-16T06:38:16;1.23;;;1.13;;
11086;SDS011;5597;47.588;9.642;2022-10-16T06:40:42;1.63;;;1.17;;
11086;SDS011;5597;47.588;9.642;2022-10-16T06:43:08;1.37;;;1.27;;
11086;SDS011;5597;47.588;9.642;2022-10-16T06:45:33;3.20;;;1.40;;
11086;SDS011;5597;47.588;9.642;2022-10-16T06:47:59;2.40;;;1.33;;
11086;SDS011;5597;47.588;9.642;2022-10-16T06:50:24;1.40;;;1.27;;
11086;SDS011;5597;47.588;9.642;2022-10-16T06:52:50;2.00;;;1.30;;
11086;SDS011;5597;47.588;9.642;2022-10-16T06:55:15;1.70;;;1.50;;
11086;SDS011;5597;47.588;9.642;2022-10-16T06:57:42;1.23;;;1.13;;
11086;SDS011;5597;47.588;9.642;2022-10-16T07:00:08;2.23;;;1.30;;
11086;SDS011;5597;47.588;9.642;2022-10-16T07:02:34;1.43;;;1.13;;
11086;SDS011;5597;47.588;9.642;2022-10-16T07:05:00;4.00;;;1.70;;
11086;SDS011;5597;47.588;9.642;2022-10-16T07:07:26;1.30;;;1.20;;
11086;SDS011;5597;47.588;9.642;2022-10-16T07:09:51;2.03;;;1.20;;
11086;SDS011;5597;47.588;9.642;2022-10-16T07:12:17;2.23;;;1.40;;
11086;SDS011;5597;47.588;9.642;2022-10-16T07:14:43;1.47;;;1.30;;
11086;SDS011;5597;47.588;9.642;2022-10-16T07:17:08;1.43;;;1.30;;
11086;SDS011;5597;47.588;9.642;2022-10-16T07:19:34;1.50;;;1.40;;
11086;SDS011;5597;47.588;9.642;2022-10-16T07:22:00;1.50;;;1.30;;
11086;SDS011;5597;47.588;9.642;2022-10-16T07:24:25;1.63;;;1.50;;
11086;SDS011;5597;47.588;9.642;2022-10-16T07:26:51;2.23;;;1.40;;
11086;SDS011;5597;47.588;9.642;2022-10-16T07:29:18;1.60;;;1.30;;
11086;SDS011;5597;47.588;9.642;2022-10-16T07:31:45;1.40;;;1.30;;
11086;SDS011;5597;47.588;9.642;2022-10-16T07:34:12;1.83;;;1.50;;
11086;SDS011;5597;47.588;9.642;2022-10-16T07:36:39;2.10;;;1.20;;
11086;SDS011;5597;47.588;9.642;2022-10-16T07:39:04;1.33;;;1.10;;
11086;SDS011;5597;47.588;9.642;2022-10-16T07:41:30;1.50;;;1.30;;
11086;SDS011;5597;47.588;9.642;2022-10-16T07:43:58;1.60;;;1.27;;
11086;SDS011;5597;47.588;9.642;2022-10-16T07:46:26;1.30;;;1.20;;
11086;SDS011;5597;47.588;9.642;2022-10-16T07:48:52;2.27;;;1.13;;
11086;SDS011;5597;47.588;9.642;2022-10-16T07:51:19;1.93;;;1.40;;
11086;SDS011;5597;47.588;9.642;2022-10-16T07:53:46;2.20;;;1.50;;
11086;SDS011;5597;47.588;9.642;2022-10-16T07:56:12;1.60;;;1.30;;
11086;SDS011;5597;47.588;9.642;2022-10-16T07:58:38;1.73;;;1.23;;
11086;SDS011;5597;47.588;9.642;2022-10-16T08:01:05;1.50;;;1.33;;
11086;SDS011;5597;47.588;9.642;2022-10-16T08:03:32;1.20;;;1.00;;
11086;SDS011;5597;47.588;9.642;2022-10-16T08:05:58;1.43;;;1.20;;
11086;SDS011;5597;47.588;9.642;2022-10-16T08:08:25;1.33;;;1.23;;
11086;SDS011;5597;47.588;9.642;2022-10-16T08:10:52;1.20;;;1.10;;
11086;SDS011;5597;47.588;9.642;2022-10-16T08:13:18;1.60;;;1.20;;
11086;SDS011;5597;47.588;9.642;2022-10-16T08:15:44;1.80;;;1.30;;
11086;SDS011;5597;47.588;9.642;2022-10-16T08:18:10;3.47;;;1.50;;
11086;SDS011;5597;47.588;9.642;2022-10-16T08:20:38;3.40;;;1.70;;
11086;SDS011;5597;47.588;9.642;2022-10-16T08:23:04;1.80;;;1.47;;
11086;SDS011;5597;47.588;9.642;2022-10-16T08:25:30;1.43;;;1.33;;
11086;SDS011;5597;47.588;9.642;2022-10-16T08:27:56;1.67;;;1.43;;
11086;SDS011;5597;47.588;9.642;2022-10-16T08:30:22;2.10;;;1.20;;
11086;SDS011;5597;47.588;9.642;2022-10-16T08:32:48;1.47;;;1.33;;
11086;SDS011;5597;47.588;9.642;2022-10-16T08:35:14;2.00;;;1.47;;
11086;SDS011;5597;47.588;9.642;2022-10-16T08:37:40;2.23;;;1.30;;
11086;SDS011;5597;47.588;9.642;2022-10-16T08:40:07;1.30;;;1.20;;
11086;SDS011;5597;47.588;9.642;2022-10-16T08:45:25;1.70;;;1.50;;
11086;SDS011;5597;47.588;9.642;2022-10-16T08:48:15;1.90;;;1.50;;
11086;SDS011;5597;47.588;9.642;2022-10-16T08:50:44;2.03;;;1.40;;
11086;SDS011;5597;47.588;9.642;2022-10-16T08:53:17;1.90;;;1.67;;
11086;SDS011;5597;47.588;9.642;2022-10-16T08:55:52;1.57;;;1.47;;
11086;SDS011;5597;47.588;9.642;2022-10-16T08:58:22;5.27;;;1.33;;
11086;SDS011;5597;47.588;9.642;2022-10-16T09:01:01;2.43;;;1.50;;
11086;SDS011;5597;47.588;9.642;2022-10-16T09:12:12;1.60;;;1.50;;
11086;SDS011;5597;47.588;9.642;2022-10-16T09:15:13;1.77;;;1.67;;
11086;SDS011;5597;47.588;9.642;2022-10-16T09:17:54;2.30;;;1.70;;
11086;SDS011;5597;47.588;9.642;2022-10-16T09:25:41;2.20;;;1.80;;
11086;SDS011;5597;47.588;9.642;2022-10-16T09:28:10;1.63;;;1.50;;
11086;SDS011;5597;47.588;9.642;2022-10-16T09:30:36;1.57;;;1.40;;
11086;SDS011;5597;47.588;9.642;2022-10-16T09:33:04;2.60;;;1.43;;
11086;SDS011;5597;47.588;9.642;2022-10-16T09:35:32;1.87;;;1.60;;
11086;SDS011;5597;47.588;9.642;2022-10-16T09:37:58;1.70;;;1.57;;
11086;SDS011;5597;47.588;9.642;2022-10-16T09:40:30;1.53;;;1.40;;
11086;SDS011;5597;47.588;9.642;2022-10-16T09:43:06;2.50;;;1.67;;
11086;SDS011;5597;47.588;9.642;2022-10-16T09:45:38;2.90;;;1.37;;
11086;SDS011;5597;47.588;9.642;2022-10-16T09:48:11;1.70;;;1.60;;
11086;SDS011;5597;47.588;9.642;2022-10-16T09:50:38;1.47;;;1.37;;
11086;SDS011;5597;47.588;9.642;2022-10-16T09:53:14;1.67;;;1.57;;
11086;SDS011;5597;47.588;9.642;2022-10-16T09:55:52;2.23;;;1.37;;
11086;SDS011;5597;47.588;9.642;2022-10-16T09:58:21;3.43;;;1.67;;
11086;SDS011;5597;47.588;9.642;2022-10-16T10:00:48;1.70;;;1.50;;
11086;SDS011;5597;47.588;9.642;2022-10-16T10:06:47;1.53;;;1.43;;
11086;SDS011;5597;47.588;9.642;2022-10-16T10:08:59;3.27;;;1.60;;
11086;SDS011;5597;47.588;9.642;2022-10-16T10:14:31;4.20;;;1.87;;
11086;SDS011;5597;47.588;9.642;2022-10-16T10:19:30;1.47;;;1.37;;
11086;SDS011;5597;47.588;9.642;2022-10-16T10:27:20;3.73;;;1.83;;
11086;SDS011;5597;47.588;9.642;2022-10-16T10:29:59;2.07;;;1.70;;
11086;SDS011;5597;47.588;9.642;2022-10-16T10:32:48;1.60;;;1.50;;
11086;SDS011;5597;47.588;9.642;2022-10-16T10:40:46;1.43;;;1.33;;
11086;SDS011;5597;47.588;9.642;2022-10-16T10:46:02;3.33;;;1.60;;
11086;SDS011;5597;47.588;9.642;2022-10-16T10:51:10;1.60;;;1.50;;
11086;SDS011;5597;47.588;9.642;2022-10-16T10:56:16;1.90;;;1.70;;
11086;SDS011;5597;47.588;9.642;2022-10-16T11:01:45;1.60;;;1.50;;
11086;SDS011;5597;47.588;9.642;2022-10-16T11:07:19;2.63;;;1.63;;
11086;SDS011;5597;47.588;9.642;2022-10-16T11:09:51;2.30;;;1.63;;
11086;SDS011;5597;47.588;9.642;2022-10-16T11:12:21;4.60;;;1.53;;
11086;SDS011;5597;47.588;9.642;2022-10-16T11:18:08;1.83;;;1.70;;
11086;SDS011;5597;47.588;9.642;2022-10-16T11:20:42;2.13;;;1.73;;
11086;SDS011;5597;47.588;9.642;2022-10-16T11:25:51;2.00;;;1.83;;
11086;SDS011;5597;47.588;9.642;2022-10-16T11:28:23;1.70;;;1.53;;
11086;SDS011;5597;47.588;9.642;2022-10-16T11:30:59;2.17;;;1.60;;
11086;SDS011;5597;47.588;9.642;2022-10-16T11:33:45;1.80;;;1.70;;
11086;SDS011;5597;47.588;9.642;2022-10-16T11:36:17;2.00;;;1.90;;
11086;SDS011;5597;47.588;9.642;2022-10-16T11:49:57;2.40;;;1.70;;
11086;SDS011;5597;47.588;9.642;2022-10-16T11:52:36;2.60;;;1.60;;
11086;SDS011;5597;47.588;9.642;2022-10-16T11:55:14;2.10;;;1.60;;
11086;SDS011;5597;47.588;9.642;2022-10-16T11:57:44;1.50;;;1.40;;
11086;SDS011;5597;47.588;9.642;2022-10-16T12:03:38;1.63;;;1.53;;
11086;SDS011;5597;47.588;9.642;2022-10-16T12:08:39;1.60;;;1.50;;
11086;SDS011;5597;47.588;9.642;2022-10-16T12:11:09;2.37;;;1.70;;
11086;SDS011;5597;47.588;9.642;2022-10-16T12:16:58;1.60;;;1.50;;
11086;SDS011;5597;47.588;9.642;2022-10-16T12:19:30;1.50;;;1.40;;
11086;SDS011;5597;47.588;9.642;2022-10-16T12:21:57;1.57;;;1.40;;
11086;SDS011;5597;47.588;9.642;2022-10-16T12:24:30;1.60;;;1.40;;
11086;SDS011;5597;47.588;9.642;2022-10-16T12:27:04;1.40;;;1.30;;
11086;SDS011;5597;47.588;9.642;2022-10-16T12:29:33;1.60;;;1.50;;
11086;SDS011;5597;47.588;9.642;2022-10-16T12:31:59;1.87;;;1.40;;
11086;SDS011;5597;47.588;9.642;2022-10-16T12:34:33;1.67;;;1.20;;
11086;SDS011;5597;47.588;9.642;2022-10-16T12:39:39;1.60;;;1.30;;
11086;SDS011;5597;47.588;9.642;2022-10-16T12:42:18;1.50;;;1.30;;
11086;SDS011;5597;47.588;9.642;2022-10-16T12:44:44;1.30;;;1.20;;
11086;SDS011;5597;47.588;9.642;2022-10-16T12:47:19;1.50;;;1.40;;
11086;SDS011;5597;47.588;9.642;2022-10-16T12:49:59;1.30;;;1.20;;
11086;SDS011;5597;47.588;9.642;2022-10-16T12:52:35;1.27;;;1.10;;
11086;SDS011;5597;47.588;9.642;2022-10-16T12:55:03;1.30;;;1.20;;
11086;SDS011;5597;47.588;9.642;2022-10-16T12:57:34;1.30;;;1.20;;
11086;SDS011;5597;47.588;9.642;2022-10-16T13:00:25;1.60;;;1.50;;
11086;SDS011;5597;47.588;9.642;2022-10-16T13:11:37;1.50;;;1.40;;
11086;SDS011;5597;47.588;9.642;2022-10-16T13:19:51;2.07;;;1.43;;
11086;SDS011;5597;47.588;9.642;2022-10-16T13:28:10;1.60;;;1.50;;
11086;SDS011;5597;47.588;9.642;2022-10-16T13:30:41;2.40;;;1.30;;
11086;SDS011;5597;47.588;9.642;2022-10-16T13:35:56;1.70;;;1.27;;
11086;SDS011;5597;47.588;9.642;2022-10-16T13:38:23;1.13;;;1.03;;
11086;SDS011;5597;47.588;9.642;2022-10-16T13:40:55;1.00;;;0.90;;
11086;SDS011;5597;47.588;9.642;2022-10-16T13:48:21;0.90;;;0.80;;
11086;SDS011;5597;47.588;9.642;2022-10-16T13:50:53;2.57;;;0.97;;
11086;SDS011;5597;47.588;9.642;2022-10-16T13:53:23;1.83;;;0.90;;
11086;SDS011;5597;47.588;9.642;2022-10-16T13:55:49;1.53;;;0.87;;
11086;SDS011;5597;47.588;9.642;2022-10-16T13:58:14;1.40;;;0.80;;
11086;SDS011;5597;47.588;9.642;2022-10-16T14:00:41;1.63;;;1.00;;
11086;SDS011;5597;47.588;9.642;2022-10-16T14:03:20;0.83;;;0.83;;
11086;SDS011;5597;47.588;9.642;2022-10-16T14:05:50;1.03;;;0.70;;
11086;SDS011;5597;47.588;9.642;2022-10-16T14:08:22;1.97;;;1.00;;
11086;SDS011;5597;47.588;9.642;2022-10-16T14:10:50;0.80;;;0.80;;
11086;SDS011;5597;47.588;9.642;2022-10-16T14:13:20;0.70;;;0.70;;
11086;SDS011;5597;47.588;9.642;2022-10-16T14:15:52;0.90;;;0.77;;
11086;SDS011;5597;47.588;9.642;2022-10-16T14:18:23;0.80;;;0.70;;
11086;SDS011;5597;47.588;9.642;2022-10-16T14:20:52;0.70;;;0.70;;
11086;SDS011;5597;47.588;9.642;2022-10-16T14:23:19;1.40;;;0.93;;
11086;SDS011;5597;47.588;9.642;2022-10-16T14:28:34;0.80;;;0.80;;
11086;SDS011;5597;47.588;9.642;2022-10-16T14:33:48;0.97;;;0.63;;
11086;SDS011;5597;47.588;9.642;2022-10-16T14:36:14;2.77;;;0.87;;
11086;SDS011;5597;47.588;9.642;2022-10-16T14:38:56;0.90;;;0.90;;
11086;SDS011;5597;47.588;9.642;2022-10-16T14:41:25;1.20;;;1.00;;
11086;SDS011;5597;47.588;9.642;2022-10-16T14:43:52;1.90;;;0.90;;
11086;SDS011;5597;47.588;9.642;2022-10-16T14:46:21;1.13;;;1.03;;
11086;SDS011;5597;47.588;9.642;2022-10-16T14:48:58;1.80;;;0.97;;
11086;SDS011;5597;47.588;9.642;2022-10-16T14:51:45;1.57;;;0.90;;
11086;SDS011;5597;47.588;9.642;2022-10-16T14:54:12;1.57;;;0.77;;
11086;SDS011;5597;47.588;9.642;2022-10-16T14:56:56;1.53;;;0.87;;
11086;SDS011;5597;47.588;9.642;2022-10-16T14:59:25;2.70;;;0.90;;
11086;SDS011;5597;47.588;9.642;2022-10-16T15:01:55;2.10;;;0.80;;
11086;SDS011;5597;47.588;9.642;2022-10-16T15:04:21;1.07;;;0.80;;
11086;SDS011;5597;47.588;9.642;2022-10-16T15:06:46;1.77;;;0.80;;
11086;SDS011;5597;47.588;9.642;2022-10-16T15:09:12;1.80;;;0.90;;
11086;SDS011;5597;47.588;9.642;2022-10-16T15:11:37;0.83;;;0.70;;
11086;SDS011;5597;47.588;9.642;2022-10-16T15:14:04;1.20;;;0.70;;
11086;SDS011;5597;47.588;9.642;2022-10-16T15:16:30;1.80;;;0.90;;
11086;SDS011;5597;47.588;9.642;2022-10-16T15:18:56;1.30;;;0.70;;
11086;SDS011;5597;47.588;9.642;2022-10-16T15:21:26;1.13;;;0.90;;
11086;SDS011;5597;47.588;9.642;2022-10-16T15:23:53;1.07;;;0.90;;
11086;SDS011;5597;47.588;9.642;2022-10-16T15:26:21;1.07;;;0.90;;
11086;SDS011;5597;47.588;9.642;2022-10-16T15:28:47;0.90;;;0.80;;
11086;SDS011;5597;47.588;9.642;2022-10-16T15:31:13;1.20;;;0.73;;
11086;SDS011;5597;47.588;9.642;2022-10-16T15:33:38;1.00;;;0.70;;
11086;SDS011;5597;47.588;9.642;2022-10-16T15:36:04;1.73;;;0.80;;
11086;SDS011;5597;47.588;9.642;2022-10-16T15:38:30;1.10;;;0.83;;
11086;SDS011;5597;47.588;9.642;2022-10-16T15:40:56;1.10;;;1.00;;
11086;SDS011;5597;47.588;9.642;2022-10-16T15:43:21;1.30;;;1.17;;
11086;SDS011;5597;47.588;9.642;2022-10-16T15:45:58;1.47;;;1.20;;
11086;SDS011;5597;47.588;9.642;2022-10-16T15:48:29;1.60;;;1.03;;
11086;SDS011;5597;47.588;9.642;2022-10-16T15:50:55;0.80;;;0.80;;
11086;SDS011;5597;47.588;9.642;2022-10-16T15:53:21;1.50;;;1.10;;
11086;SDS011;5597;47.588;9.642;2022-10-16T15:55:46;1.10;;;1.00;;
11086;SDS011;5597;47.588;9.642;2022-10-16T15:58:12;1.40;;;1.20;;
11086;SDS011;5597;47.588;9.642;2022-10-16T16:00:37;1.63;;;1.40;;
11086;SDS011;5597;47.588;9.642;2022-10-16T16:03:03;1.50;;;1.40;;
11086;SDS011;5597;47.588;9.642;2022-10-16T16:05:29;2.57;;;1.70;;
11086;SDS011;5597;47.588;9.642;2022-10-16T16:07:54;1.83;;;1.50;;
11086;SDS011;5597;47.588;9.642;2022-10-16T16:10:21;1.30;;;1.20;;
11086;SDS011;5597;47.588;9.642;2022-10-16T16:12:47;1.93;;;1.43;;
11086;SDS011;5597;47.588;9.642;2022-10-16T16:15:16;1.40;;;1.30;;
11086;SDS011;5597;47.588;9.642;2022-10-16T16:17:42;1.33;;;1.23;;
11086;SDS011;5597;47.588;9.642;2022-10-16T16:20:09;1.60;;;1.27;;
11086;SDS011;5597;47.588;9.642;2022-10-16T16:22:35;1.27;;;1.17;;
11086;SDS011;5597;47.588;9.642;2022-10-16T16:25:00;1.20;;;1.10;;
11086;SDS011;5597;47.588;9.642;2022-10-16T16:27:26;1.70;;;1.30;;
11086;SDS011;5597;47.588;9.642;2022-10-16T16:29:53;1.53;;;1.20;;
11086;SDS011;5597;47.588;9.642;2022-10-16T16:32:20;1.20;;;1.10;;
11086;SDS011;5597;47.588;9.642;2022-10-16T16:34:45;0.93;;;0.90;;
11086;SDS011;5597;47.588;9.642;2022-10-16T16:37:11;1.10;;;1.00;;
11086;SDS011;5597;47.588;9.642;2022-10-16T16:39:37;1.17;;;1.00;;
11086;SDS011;5597;47.588;9.642;2022-10-16T16:42:02;0.80;;;0.80;;
11086;SDS011;5597;47.588;9.642;2022-10-16T16:44:30;0.90;;;0.90;;
11086;SDS011;5597;47.588;9.642;2022-10-16T16:46:56;1.37;;;0.80;;
11086;SDS011;5597;47.588;9.642;2022-10-16T16:49:21;1.33;;;1.23;;
11086;SDS011;5597;47.588;9.642;2022-10-16T16:51:47;1.70;;;1.20;;
11086;SDS011;5597;47.588;9.642;2022-10-16T16:54:12;1.20;;;1.10;;
11086;SDS011;5597;47.588;9.642;2022-10-16T16:56:38;2.50;;;1.43;;
11086;SDS011;5597;47.588;9.642;2022-10-16T16:59:19;2.57;;;1.30;;
11086;SDS011;5597;47.588;9.642;2022-10-16T17:01:46;2.23;;;1.20;;
11086;SDS011;5597;47.588;9.642;2022-10-16T17:04:12;1.20;;;1.00;;
11086;SDS011;5597;47.588;9.642;2022-10-16T17:06:40;1.23;;;1.13;;
11086;SDS011;5597;47.588;9.642;2022-10-16T17:09:06;1.70;;;1.60;;
11086;SDS011;5597;47.588;9.642;2022-10-16T17:11:32;2.27;;;1.77;;